DHK25MD EGCC-EGNJ
Flight info
| Callsign | DHK25MD |
|---|---|
| Flight time | 0h 20m |
| Altitude | 11000 |
| Route | DESIG L975 GOLES |
| Aircraft | B77L/H-SDE1E2E3FGHIJ2J3J4J5M1RWXY/LB1D1 |
Departure
| Time | 2026-05-05 12:20 |
|---|---|
| Airport | Manchester Airport (EGCC) |
Arrival
| Time | 2026-05-05 12:40 |
|---|---|
| Airport | Humberside Airport (EGNJ) |
| Time | Latitude | Longitude | Altitude | Speed | Heading |
|---|---|---|---|---|---|
| 2026-05-05 11:52 | 53.37035 | -2.28839 | 260 ft | 0 kts | 315° |
| 2026-05-05 12:05 | 53.37023 | -2.28818 | 259 ft | 3 kts | 303° |
| 2026-05-05 12:06 | 53.37014 | -2.28789 | 259 ft | 3 kts | 281° |
| 2026-05-05 12:06 | 53.37013 | -2.28757 | 259 ft | 3 kts | 253° |
| 2026-05-05 12:06 | 53.37021 | -2.28730 | 259 ft | 2 kts | 225° |
| 2026-05-05 12:06 | 53.37022 | -2.28728 | 259 ft | 1 kts | 225° |
| 2026-05-05 12:09 | 53.37014 | -2.28741 | 259 ft | 5 kts | 224° |
| 2026-05-05 12:10 | 53.36973 | -2.28808 | 259 ft | 10 kts | 224° |
| 2026-05-05 12:10 | 53.36922 | -2.28890 | 259 ft | 10 kts | 224° |
| 2026-05-05 12:10 | 53.36872 | -2.28974 | 259 ft | 10 kts | 224° |
| 2026-05-05 12:10 | 53.36813 | -2.29041 | 259 ft | 10 kts | 204° |
| 2026-05-05 12:11 | 53.36745 | -2.29058 | 259 ft | 10 kts | 159° |
| 2026-05-05 12:11 | 53.36689 | -2.28985 | 259 ft | 10 kts | 137° |
| 2026-05-05 12:11 | 53.36638 | -2.28901 | 259 ft | 10 kts | 134° |
| 2026-05-05 12:11 | 53.36594 | -2.28807 | 259 ft | 10 kts | 122° |
| 2026-05-05 12:12 | 53.36551 | -2.28712 | 260 ft | 10 kts | 132° |
| 2026-05-05 12:12 | 53.36501 | -2.28626 | 260 ft | 10 kts | 134° |
| 2026-05-05 12:12 | 53.36451 | -2.28540 | 260 ft | 10 kts | 134° |
| 2026-05-05 12:12 | 53.36388 | -2.28488 | 260 ft | 10 kts | 168° |
| 2026-05-05 12:13 | 53.36345 | -2.28458 | 260 ft | 10 kts | 147° |
| 2026-05-05 12:13 | 53.36291 | -2.28380 | 260 ft | 10 kts | 135° |
| 2026-05-05 12:13 | 53.36225 | -2.28267 | 260 ft | 10 kts | 134° |
| 2026-05-05 12:13 | 53.36175 | -2.28181 | 260 ft | 10 kts | 134° |
| 2026-05-05 12:14 | 53.36126 | -2.28097 | 259 ft | 7 kts | 136° |
| 2026-05-05 12:14 | 53.36099 | -2.28055 | 260 ft | 13 kts | 137° |
| 2026-05-05 12:14 | 53.36019 | -2.27941 | 260 ft | 14 kts | 140° |
| 2026-05-05 12:14 | 53.35937 | -2.27859 | 260 ft | 14 kts | 165° |
| 2026-05-05 12:15 | 53.35836 | -2.27861 | 256 ft | 16 kts | 185° |
| 2026-05-05 12:15 | 53.35711 | -2.27879 | 250 ft | 20 kts | 185° |
| 2026-05-05 12:15 | 53.35626 | -2.27912 | 245 ft | 13 kts | 213° |
| 2026-05-05 12:15 | 53.35560 | -2.28035 | 240 ft | 16 kts | 226° |
| 2026-05-05 12:16 | 53.35472 | -2.28137 | 239 ft | 15 kts | 204° |
| 2026-05-05 12:16 | 53.35375 | -2.28168 | 240 ft | 13 kts | 188° |
| 2026-05-05 12:16 | 53.35283 | -2.28234 | 236 ft | 15 kts | 213° |
| 2026-05-05 12:16 | 53.35206 | -2.28357 | 241 ft | 16 kts | 229° |
| 2026-05-05 12:17 | 53.35129 | -2.28513 | 234 ft | 18 kts | 232° |
| 2026-05-05 12:17 | 53.35049 | -2.28675 | 236 ft | 18 kts | 230° |
| 2026-05-05 12:17 | 53.34963 | -2.28831 | 231 ft | 18 kts | 226° |
| 2026-05-05 12:17 | 53.34886 | -2.28966 | 226 ft | 17 kts | 226° |
| 2026-05-05 12:18 | 53.34801 | -2.29126 | 226 ft | 19 kts | 230° |
| 2026-05-05 12:18 | 53.34722 | -2.29279 | 224 ft | 16 kts | 223° |
| 2026-05-05 12:18 | 53.34620 | -2.29337 | 217 ft | 16 kts | 177° |
| 2026-05-05 12:18 | 53.34547 | -2.29268 | 222 ft | 6 kts | 127° |
| 2026-05-05 12:19 | 53.34552 | -2.29200 | 222 ft | 7 kts | 54° |
| 2026-05-05 12:19 | 53.34597 | -2.29104 | 223 ft | 23 kts | 52° |
| 2026-05-05 12:19 | 53.34851 | -2.28579 | 237 ft | 94 kts | 51° |
| 2026-05-05 12:19 | 53.35400 | -2.27434 | 248 ft | 155 kts | 52° |
| 2026-05-05 12:20 | 53.36148 | -2.25834 | 415 ft | 181 kts | 54° |
| 2026-05-05 12:20 | 53.36898 | -2.24143 | 1122 ft | 178 kts | 51° |
| 2026-05-05 12:20 | 53.37630 | -2.22544 | 1946 ft | 176 kts | 47° |
| 2026-05-05 12:20 | 53.38435 | -2.20895 | 2410 ft | 195 kts | 47° |
| 2026-05-05 12:21 | 53.39352 | -2.19012 | 2660 ft | 221 kts | 49° |
| 2026-05-05 12:21 | 53.40381 | -2.16881 | 3023 ft | 245 kts | 49° |
| 2026-05-05 12:21 | 53.41465 | -2.14610 | 3809 ft | 252 kts | 50° |
| 2026-05-05 12:21 | 53.42565 | -2.12293 | 4584 ft | 256 kts | 50° |
| 2026-05-05 12:22 | 53.43674 | -2.09942 | 5446 ft | 259 kts | 50° |
| 2026-05-05 12:22 | 53.44802 | -2.07546 | 6231 ft | 266 kts | 50° |
| 2026-05-05 12:22 | 53.45961 | -2.05080 | 6922 ft | 274 kts | 51° |
| 2026-05-05 12:22 | 53.47153 | -2.02540 | 7694 ft | 278 kts | 50° |
| 2026-05-05 12:23 | 53.48361 | -1.99963 | 8491 ft | 283 kts | 50° |
| 2026-05-05 12:23 | 53.49585 | -1.97393 | 9262 ft | 288 kts | 50° |
| 2026-05-05 12:23 | 53.50857 | -1.94740 | 10000 ft | 294 kts | 49° |
| 2026-05-05 12:23 | 53.52119 | -1.91996 | 10552 ft | 303 kts | 57° |
| 2026-05-05 12:24 | 53.52883 | -1.88608 | 10984 ft | 318 kts | 78° |
| 2026-05-05 12:24 | 53.53266 | -1.84778 | 11023 ft | 350 kts | 80° |
| 2026-05-05 12:24 | 53.53664 | -1.80559 | 11052 ft | 380 kts | 80° |
| 2026-05-05 12:24 | 53.54095 | -1.76058 | 11036 ft | 392 kts | 80° |
| 2026-05-05 12:25 | 53.54540 | -1.71520 | 11031 ft | 395 kts | 79° |
| 2026-05-05 12:25 | 53.54998 | -1.66968 | 11028 ft | 395 kts | 80° |
| 2026-05-05 12:25 | 53.55461 | -1.62411 | 11017 ft | 395 kts | 79° |
| 2026-05-05 12:25 | 53.55923 | -1.57863 | 11027 ft | 394 kts | 79° |
| 2026-05-05 12:26 | 53.56383 | -1.53310 | 11025 ft | 395 kts | 80° |
| 2026-05-05 12:26 | 53.56841 | -1.48752 | 11020 ft | 393 kts | 80° |
| 2026-05-05 12:26 | 53.57287 | -1.44298 | 10999 ft | 379 kts | 80° |
| 2026-05-05 12:26 | 53.57707 | -1.40010 | 10990 ft | 361 kts | 82° |
| 2026-05-05 12:27 | 53.57720 | -1.35772 | 10908 ft | 365 kts | 98° |
| 2026-05-05 12:27 | 53.57125 | -1.31644 | 10703 ft | 361 kts | 108° |
| 2026-05-05 12:27 | 53.56335 | -1.27697 | 10550 ft | 350 kts | 110° |
| 2026-05-05 12:27 | 53.55538 | -1.23959 | 10442 ft | 337 kts | 110° |
| 2026-05-05 12:28 | 53.54756 | -1.20336 | 10362 ft | 323 kts | 110° |
| 2026-05-05 12:28 | 53.53999 | -1.16842 | 10206 ft | 312 kts | 110° |
| 2026-05-05 12:28 | 53.53278 | -1.13535 | 10110 ft | 290 kts | 110° |
| 2026-05-05 12:28 | 53.52608 | -1.10463 | 10003 ft | 275 kts | 110° |
| 2026-05-05 12:29 | 53.51938 | -1.07397 | 9784 ft | 285 kts | 110° |
| 2026-05-05 12:29 | 53.51244 | -1.04231 | 9559 ft | 291 kts | 110° |
| 2026-05-05 12:29 | 53.50540 | -1.01026 | 9289 ft | 290 kts | 110° |
| 2026-05-05 12:29 | 53.49848 | -0.97871 | 9009 ft | 284 kts | 110° |
| 2026-05-05 12:30 | 53.49171 | -0.94788 | 8729 ft | 278 kts | 110° |
| 2026-05-05 12:30 | 53.48514 | -0.91797 | 8460 ft | 276 kts | 110° |
| 2026-05-05 12:30 | 53.47845 | -0.88755 | 8104 ft | 280 kts | 110° |
| 2026-05-05 12:30 | 53.47167 | -0.85683 | 7705 ft | 280 kts | 110° |
| 2026-05-05 12:31 | 53.46505 | -0.82688 | 7306 ft | 266 kts | 110° |
| 2026-05-05 12:31 | 53.45881 | -0.79861 | 6896 ft | 251 kts | 110° |
| 2026-05-05 12:31 | 53.45291 | -0.77190 | 6502 ft | 237 kts | 110° |
| 2026-05-05 12:31 | 53.44734 | -0.74673 | 6086 ft | 224 kts | 110° |
| 2026-05-05 12:32 | 53.44201 | -0.72286 | 5658 ft | 214 kts | 110° |
| 2026-05-05 12:32 | 53.43685 | -0.69987 | 5379 ft | 211 kts | 110° |
| 2026-05-05 12:32 | 53.43151 | -0.67615 | 5034 ft | 222 kts | 110° |
| 2026-05-05 12:32 | 53.42608 | -0.65219 | 4638 ft | 215 kts | 110° |
| 2026-05-05 12:33 | 53.42089 | -0.62951 | 4235 ft | 201 kts | 110° |
| 2026-05-05 12:33 | 53.41598 | -0.60863 | 3844 ft | 191 kts | 111° |
| 2026-05-05 12:33 | 53.41115 | -0.58829 | 3456 ft | 186 kts | 110° |
| 2026-05-05 12:33 | 53.40609 | -0.56779 | 3168 ft | 194 kts | 111° |
| 2026-05-05 12:34 | 53.40083 | -0.54665 | 2773 ft | 197 kts | 110° |
| 2026-05-05 12:34 | 53.39557 | -0.52579 | 2496 ft | 189 kts | 111° |
| 2026-05-05 12:34 | 53.39048 | -0.50538 | 2523 ft | 192 kts | 111° |
| 2026-05-05 12:34 | 53.38531 | -0.48468 | 2523 ft | 192 kts | 111° |
| 2026-05-05 12:35 | 53.38017 | -0.46407 | 2500 ft | 190 kts | 111° |
| 2026-05-05 12:35 | 53.37508 | -0.44364 | 2521 ft | 190 kts | 110° |
| 2026-05-05 12:35 | 53.37282 | -0.42273 | 2477 ft | 179 kts | 73° |
| 2026-05-05 12:35 | 53.38035 | -0.40710 | 2516 ft | 180 kts | 23° |
| 2026-05-05 12:36 | 53.39259 | -0.40692 | 2504 ft | 178 kts | 340° |
| 2026-05-05 12:36 | 53.40398 | -0.41480 | 2532 ft | 176 kts | 339° |
| 2026-05-05 12:36 | 53.41509 | -0.42213 | 2502 ft | 170 kts | 339° |
| 2026-05-05 12:36 | 53.42606 | -0.42944 | 2505 ft | 169 kts | 339° |
| 2026-05-05 12:37 | 53.43668 | -0.43657 | 2496 ft | 161 kts | 340° |
| 2026-05-05 12:37 | 53.44735 | -0.43825 | 2477 ft | 154 kts | 19° |
| 2026-05-05 12:37 | 53.45715 | -0.43016 | 2500 ft | 161 kts | 21° |
| 2026-05-05 12:37 | 53.46748 | -0.42329 | 2493 ft | 158 kts | 20° |
| 2026-05-05 12:38 | 53.47774 | -0.41656 | 2428 ft | 162 kts | 20° |
| 2026-05-05 12:38 | 53.48834 | -0.40941 | 2162 ft | 164 kts | 20° |
| 2026-05-05 12:38 | 53.49883 | -0.40254 | 1767 ft | 158 kts | 20° |
| 2026-05-05 12:38 | 53.50890 | -0.39576 | 1442 ft | 154 kts | 21° |
| 2026-05-05 12:39 | 53.51885 | -0.38908 | 1189 ft | 154 kts | 20° |
| 2026-05-05 12:39 | 53.52872 | -0.38229 | 943 ft | 154 kts | 20° |
| 2026-05-05 12:39 | 53.53850 | -0.37551 | 699 ft | 151 kts | 21° |
| 2026-05-05 12:39 | 53.54830 | -0.36891 | 516 ft | 155 kts | 22° |
| 2026-05-05 12:40 | 53.55803 | -0.36208 | 305 ft | 144 kts | 22° |
| 2026-05-05 12:40 | 53.56689 | -0.35602 | 144 ft | 135 kts | 22° |
| 2026-05-05 12:40 | 53.57470 | -0.35056 | 108 ft | 101 kts | 22° |
| 2026-05-05 12:40 | 53.57889 | -0.34769 | 95 ft | 27 kts | 23° |
| 2026-05-05 12:41 | 53.58033 | -0.34733 | 93 ft | 21 kts | 342° |
| 2026-05-05 12:41 | 53.58110 | -0.34818 | 89 ft | 13 kts | 323° |
| 2026-05-05 12:41 | 53.58155 | -0.34880 | 90 ft | 0 kts | 315° |
| 2026-05-05 12:42 | 53.58156 | -0.34880 | 90 ft | 0 kts | 315° |
| 2026-05-05 12:42 | 53.58157 | -0.34884 | 90 ft | 1 kts | 310° |
| 2026-05-05 12:42 | 53.58181 | -0.34926 | 90 ft | 5 kts | 323° |
| 2026-05-05 12:42 | 53.58207 | -0.34918 | 90 ft | 7 kts | 27° |
| 2026-05-05 12:43 | 53.58226 | -0.34882 | 88 ft | 5 kts | 56° |
| 2026-05-05 12:43 | 53.58232 | -0.34865 | 88 ft | 1 kts | 59° |
| 2026-05-05 12:43 | 53.58233 | -0.34862 | 88 ft | 0 kts | 59° |
| 2026-05-05 12:43 | 53.58233 | -0.34861 | 88 ft | 0 kts | 59° |